SDR149 EDDC-LEPA
Flight info
| Callsign | SDR149 |
|---|---|
| Flight time | N/A |
| Altitude | 36000 |
| Route | MAREM5W MAREM DCT YUJKI DCT PEMEL DCT RUDAP DCT EBEDA DCT BADVI DCT BERAS DCT OLPIX/N0454F370 DCT EKPEB DCT PIDAD DCT TALEP DCT RARQU DCT BALEN/N0463F290 UT250 RIXOT |
| Aircraft | A320/M-SDE3FGHIRWY/LB1 |
Departure
| Time | 2026-05-06 14:57 |
|---|---|
| Airport | Dresden Airport (EDDC) |
Arrival
| Time | N/A |
|---|---|
| Airport | Palma de Mallorca Airport (LEPA) |
| Time | Latitude | Longitude | Altitude | Speed | Heading |
|---|---|---|---|---|---|
| 2026-05-06 14:21 | 51.12595 | 13.76604 | 711 ft | 0 kts | 221° |
| 2026-05-06 14:47 | 51.12600 | 13.76611 | 715 ft | 2 kts | 218° |
| 2026-05-06 14:48 | 51.12613 | 13.76628 | 715 ft | 2 kts | 221° |
| 2026-05-06 14:48 | 51.12626 | 13.76645 | 716 ft | 2 kts | 221° |
| 2026-05-06 14:48 | 51.12638 | 13.76662 | 716 ft | 2 kts | 221° |
| 2026-05-06 14:48 | 51.12650 | 13.76680 | 712 ft | 2 kts | 240° |
| 2026-05-06 14:49 | 51.12654 | 13.76705 | 715 ft | 2 kts | 297° |
| 2026-05-06 14:49 | 51.12649 | 13.76719 | 712 ft | 1 kts | 309° |
| 2026-05-06 14:49 | 51.12648 | 13.76720 | 712 ft | 0 kts | 310° |
| 2026-05-06 14:50 | 51.12651 | 13.76715 | 712 ft | 3 kts | 310° |
| 2026-05-06 14:50 | 51.12666 | 13.76686 | 715 ft | 8 kts | 310° |
| 2026-05-06 14:51 | 51.12721 | 13.76585 | 712 ft | 13 kts | 311° |
| 2026-05-06 14:51 | 51.12783 | 13.76474 | 712 ft | 12 kts | 314° |
| 2026-05-06 14:51 | 51.12861 | 13.76489 | 714 ft | 13 kts | 38° |
| 2026-05-06 14:51 | 51.12936 | 13.76592 | 713 ft | 15 kts | 40° |
| 2026-05-06 14:52 | 51.13017 | 13.76703 | 716 ft | 16 kts | 40° |
| 2026-05-06 14:52 | 51.13108 | 13.76828 | 713 ft | 18 kts | 41° |
| 2026-05-06 14:52 | 51.13205 | 13.76961 | 715 ft | 19 kts | 40° |
| 2026-05-06 14:52 | 51.13309 | 13.77103 | 716 ft | 20 kts | 40° |
| 2026-05-06 14:53 | 51.13417 | 13.77253 | 715 ft | 21 kts | 41° |
| 2026-05-06 14:53 | 51.13526 | 13.77402 | 713 ft | 18 kts | 40° |
| 2026-05-06 14:53 | 51.13625 | 13.77537 | 713 ft | 20 kts | 41° |
| 2026-05-06 14:53 | 51.13736 | 13.77689 | 714 ft | 22 kts | 40° |
| 2026-05-06 14:54 | 51.13852 | 13.77849 | 714 ft | 23 kts | 40° |
| 2026-05-06 14:54 | 51.13972 | 13.78013 | 712 ft | 23 kts | 40° |
| 2026-05-06 14:54 | 51.14088 | 13.78174 | 713 ft | 21 kts | 40° |
| 2026-05-06 14:54 | 51.14188 | 13.78309 | 713 ft | 19 kts | 40° |
| 2026-05-06 14:55 | 51.14287 | 13.78328 | 714 ft | 15 kts | 319° |
| 2026-05-06 14:55 | 51.14357 | 13.78195 | 715 ft | 16 kts | 310° |
| 2026-05-06 14:55 | 51.14348 | 13.78053 | 715 ft | 15 kts | 219° |
| 2026-05-06 14:55 | 51.14340 | 13.78043 | 715 ft | 1 kts | 220° |
| 2026-05-06 14:56 | 51.14231 | 13.77894 | 714 ft | 58 kts | 220° |
| 2026-05-06 14:56 | 51.13734 | 13.77209 | 715 ft | 127 kts | 220° |
| 2026-05-06 14:56 | 51.12931 | 13.76095 | 740 ft | 177 kts | 225° |
| 2026-05-06 14:56 | 51.11965 | 13.74752 | 1260 ft | 188 kts | 223° |
| 2026-05-06 14:57 | 51.10981 | 13.73318 | 1988 ft | 196 kts | 224° |
| 2026-05-06 14:57 | 51.09964 | 13.71799 | 2657 ft | 203 kts | 225° |
| 2026-05-06 14:57 | 51.08950 | 13.70215 | 3333 ft | 205 kts | 226° |
| 2026-05-06 14:57 | 51.07915 | 13.68623 | 3963 ft | 212 kts | 224° |
| 2026-05-06 14:58 | 51.06822 | 13.67015 | 4796 ft | 213 kts | 222° |
| 2026-05-06 14:58 | 51.05729 | 13.65468 | 5705 ft | 210 kts | 221° |
| 2026-05-06 14:58 | 51.04558 | 13.63876 | 6102 ft | 233 kts | 220° |
| 2026-05-06 14:58 | 51.03237 | 13.62159 | 6517 ft | 255 kts | 214° |
| 2026-05-06 14:59 | 51.01586 | 13.61042 | 7246 ft | 264 kts | 192° |
| 2026-05-06 14:59 | 50.99725 | 13.60944 | 8112 ft | 269 kts | 181° |
| 2026-05-06 14:59 | 50.97848 | 13.61045 | 9008 ft | 271 kts | 180° |
| 2026-05-06 14:59 | 50.95950 | 13.61172 | 9865 ft | 274 kts | 180° |
| 2026-05-06 15:00 | 50.94031 | 13.61310 | 10667 ft | 277 kts | 180° |
| 2026-05-06 15:00 | 50.92117 | 13.61450 | 11435 ft | 280 kts | 180° |
| 2026-05-06 15:00 | 50.90154 | 13.61588 | 12209 ft | 283 kts | 180° |
| 2026-05-06 15:00 | 50.88109 | 13.61728 | 12501 ft | 305 kts | 180° |
| 2026-05-06 15:01 | 50.85900 | 13.61875 | 12658 ft | 328 kts | 180° |
| 2026-05-06 15:01 | 50.83544 | 13.61864 | 12794 ft | 348 kts | 188° |
| 2026-05-06 15:01 | 50.81920 | 13.61525 | 12880 ft | 361 kts | 190° |
| 2026-05-06 15:01 | 50.78508 | 13.60756 | 13134 ft | 383 kts | 190° |
| 2026-05-06 15:02 | 50.75838 | 13.60138 | 13640 ft | 389 kts | 190° |
| 2026-05-06 15:02 | 50.74057 | 13.59725 | 14000 ft | 391 kts | 190° |
| 2026-05-06 15:02 | 50.71353 | 13.59099 | 14571 ft | 394 kts | 190° |
| 2026-05-06 15:02 | 50.67729 | 13.58267 | 15327 ft | 397 kts | 190° |
| 2026-05-06 15:03 | 50.65872 | 13.57845 | 15693 ft | 399 kts | 189° |
| 2026-05-06 15:03 | 50.63142 | 13.57225 | 16223 ft | 401 kts | 189° |
| 2026-05-06 15:03 | 50.60354 | 13.56593 | 16746 ft | 404 kts | 189° |
| 2026-05-06 15:03 | 50.57565 | 13.55961 | 17274 ft | 406 kts | 189° |
| 2026-05-06 15:04 | 50.54759 | 13.55326 | 17775 ft | 409 kts | 189° |
| 2026-05-06 15:04 | 50.51961 | 13.54696 | 18228 ft | 411 kts | 189° |
| 2026-05-06 15:04 | 50.49115 | 13.54054 | 18646 ft | 412 kts | 189° |
| 2026-05-06 15:04 | 50.46265 | 13.53409 | 19064 ft | 414 kts | 190° |
| 2026-05-06 15:05 | 50.43403 | 13.52763 | 19462 ft | 415 kts | 190° |
| 2026-05-06 15:05 | 50.40539 | 13.52118 | 19866 ft | 416 kts | 190° |
| 2026-05-06 15:05 | 50.37657 | 13.51468 | 20245 ft | 418 kts | 190° |
| 2026-05-06 15:05 | 50.34770 | 13.50818 | 20613 ft | 419 kts | 190° |
| 2026-05-06 15:06 | 50.31909 | 13.50171 | 20965 ft | 420 kts | 190° |
| 2026-05-06 15:06 | 50.29001 | 13.49513 | 21305 ft | 422 kts | 190° |
| 2026-05-06 15:06 | 50.26085 | 13.48857 | 21655 ft | 423 kts | 190° |
| 2026-05-06 15:06 | 50.23170 | 13.48207 | 21989 ft | 424 kts | 190° |
| 2026-05-06 15:07 | 50.20265 | 13.47563 | 22306 ft | 425 kts | 190° |
| 2026-05-06 15:07 | 50.17331 | 13.46913 | 22627 ft | 426 kts | 190° |
| 2026-05-06 15:07 | 50.14383 | 13.46263 | 22930 ft | 427 kts | 191° |
| 2026-05-06 15:07 | 50.11419 | 13.45609 | 23214 ft | 428 kts | 191° |
| 2026-05-06 15:08 | 50.08497 | 13.44964 | 23464 ft | 429 kts | 191° |
| 2026-05-06 15:08 | 50.05534 | 13.44307 | 23688 ft | 430 kts | 191° |
| 2026-05-06 15:08 | 50.02564 | 13.43647 | 23901 ft | 431 kts | 191° |
| 2026-05-06 15:08 | 49.99587 | 13.42986 | 24099 ft | 432 kts | 191° |
| 2026-05-06 15:09 | 49.96609 | 13.42325 | 24278 ft | 433 kts | 191° |
| 2026-05-06 15:09 | 49.93614 | 13.41660 | 24450 ft | 434 kts | 191° |
| 2026-05-06 15:09 | 49.90667 | 13.41009 | 24601 ft | 434 kts | 191° |
| 2026-05-06 15:09 | 49.87652 | 13.40349 | 24729 ft | 435 kts | 191° |
| 2026-05-06 15:10 | 49.84645 | 13.39693 | 24976 ft | 433 kts | 191° |
| 2026-05-06 15:10 | 49.81681 | 13.39043 | 25344 ft | 429 kts | 191° |
| 2026-05-06 15:10 | 49.78757 | 13.38400 | 25714 ft | 426 kts | 191° |
| 2026-05-06 15:10 | 49.75821 | 13.37756 | 26089 ft | 424 kts | 191° |